sensor_id;sensor_type;location;lat;lon;timestamp;temperature;humidity
16515;DHT22;8370;52.556;7.970;2022-07-03T00:01:20;18.40;99.90
16515;DHT22;8370;52.556;7.970;2022-07-03T00:03:45;18.30;99.90
16515;DHT22;8370;52.556;7.970;2022-07-03T00:06:11;18.30;99.90
16515;DHT22;8370;52.556;7.970;2022-07-03T00:08:37;18.30;99.90
16515;DHT22;8370;52.556;7.970;2022-07-03T00:11:04;18.30;99.90
16515;DHT22;8370;52.556;7.970;2022-07-03T00:13:29;18.20;99.90
16515;DHT22;8370;52.556;7.970;2022-07-03T00:15:55;18.20;99.90
16515;DHT22;8370;52.556;7.970;2022-07-03T00:18:20;18.20;99.90
16515;DHT22;8370;52.556;7.970;2022-07-03T00:20:49;18.20;99.90
16515;DHT22;8370;52.556;7.970;2022-07-03T00:23:18;18.10;99.90
16515;DHT22;8370;52.556;7.970;2022-07-03T00:25:46;18.00;99.90
16515;DHT22;8370;52.556;7.970;2022-07-03T00:28:12;18.00;99.90
16515;DHT22;8370;52.556;7.970;2022-07-03T00:30:38;18.00;99.90
16515;DHT22;8370;52.556;7.970;2022-07-03T00:33:04;18.00;99.90
16515;DHT22;8370;52.556;7.970;2022-07-03T00:35:35;18.00;99.90
16515;DHT22;8370;52.556;7.970;2022-07-03T00:38:02;18.00;99.90
16515;DHT22;8370;52.556;7.970;2022-07-03T00:40:28;18.00;99.90
16515;DHT22;8370;52.556;7.970;2022-07-03T00:42:54;18.00;99.90
16515;DHT22;8370;52.556;7.970;2022-07-03T00:45:21;17.90;99.90
16515;DHT22;8370;52.556;7.970;2022-07-03T00:47:47;17.90;99.90
16515;DHT22;8370;52.556;7.970;2022-07-03T00:50:13;17.80;99.90
16515;DHT22;8370;52.556;7.970;2022-07-03T00:52:45;17.80;99.90
16515;DHT22;8370;52.556;7.970;2022-07-03T00:55:15;17.80;99.90
16515;DHT22;8370;52.556;7.970;2022-07-03T00:57:45;17.70;99.90
16515;DHT22;8370;52.556;7.970;2022-07-03T01:00:14;17.70;99.90
16515;DHT22;8370;52.556;7.970;2022-07-03T01:02:50;17.80;99.90
16515;DHT22;8370;52.556;7.970;2022-07-03T01:08:21;17.80;99.90
16515;DHT22;8370;52.556;7.970;2022-07-03T01:14:03;17.70;99.90
16515;DHT22;8370;52.556;7.970;2022-07-03T01:16:38;17.70;99.90
16515;DHT22;8370;52.556;7.970;2022-07-03T01:19:19;17.70;99.90
16515;DHT22;8370;52.556;7.970;2022-07-03T01:24:56;17.70;99.90
16515;DHT22;8370;52.556;7.970;2022-07-03T01:30:23;17.80;99.90
16515;DHT22;8370;52.556;7.970;2022-07-03T01:33:16;17.80;99.90
16515;DHT22;8370;52.556;7.970;2022-07-03T01:35:42;17.80;99.90
16515;DHT22;8370;52.556;7.970;2022-07-03T01:38:13;17.80;99.90
16515;DHT22;8370;52.556;7.970;2022-07-03T01:40:42;17.80;99.90
16515;DHT22;8370;52.556;7.970;2022-07-03T01:43:10;17.80;99.90
16515;DHT22;8370;52.556;7.970;2022-07-03T01:45:43;17.80;99.90
16515;DHT22;8370;52.556;7.970;2022-07-03T01:48:10;17.80;99.90
16515;DHT22;8370;52.556;7.970;2022-07-03T01:50:37;17.70;99.90
16515;DHT22;8370;52.556;7.970;2022-07-03T01:53:03;17.70;99.90
16515;DHT22;8370;52.556;7.970;2022-07-03T01:55:32;17.70;99.90
16515;DHT22;8370;52.556;7.970;2022-07-03T01:57:57;17.60;99.90
16515;DHT22;8370;52.556;7.970;2022-07-03T02:00:23;17.50;99.90
16515;DHT22;8370;52.556;7.970;2022-07-03T02:03:02;17.50;99.90
16515;DHT22;8370;52.556;7.970;2022-07-03T02:11:09;17.30;99.90
16515;DHT22;8370;52.556;7.970;2022-07-03T02:16:27;17.30;99.90
16515;DHT22;8370;52.556;7.970;2022-07-03T02:19:06;17.20;99.90
16515;DHT22;8370;52.556;7.970;2022-07-03T02:21:40;17.20;99.90
16515;DHT22;8370;52.556;7.970;2022-07-03T02:24:23;17.20;99.90
16515;DHT22;8370;52.556;7.970;2022-07-03T02:27:00;17.20;99.90
16515;DHT22;8370;52.556;7.970;2022-07-03T02:29:34;17.10;99.90
16515;DHT22;8370;52.556;7.970;2022-07-03T02:32:03;17.20;99.90
16515;DHT22;8370;52.556;7.970;2022-07-03T02:34:31;17.10;99.90
16515;DHT22;8370;52.556;7.970;2022-07-03T02:37:03;17.10;99.90
16515;DHT22;8370;52.556;7.970;2022-07-03T02:39:51;17.10;99.90
16515;DHT22;8370;52.556;7.970;2022-07-03T02:42:29;17.00;99.90
16515;DHT22;8370;52.556;7.970;2022-07-03T02:44:59;17.00;99.90
16515;DHT22;8370;52.556;7.970;2022-07-03T02:50:08;16.90;99.90
16515;DHT22;8370;52.556;7.970;2022-07-03T02:55:36;16.80;99.90
16515;DHT22;8370;52.556;7.970;2022-07-03T03:01:20;16.70;99.90
16515;DHT22;8370;52.556;7.970;2022-07-03T03:04:08;16.80;99.90
16515;DHT22;8370;52.556;7.970;2022-07-03T03:06:36;16.80;99.90
16515;DHT22;8370;52.556;7.970;2022-07-03T03:09:04;16.80;99.90
16515;DHT22;8370;52.556;7.970;2022-07-03T03:11:41;16.80;99.90
16515;DHT22;8370;52.556;7.970;2022-07-03T03:14:09;16.80;99.90
16515;DHT22;8370;52.556;7.970;2022-07-03T03:16:37;16.70;99.90
16515;DHT22;8370;52.556;7.970;2022-07-03T03:19:06;16.70;99.90
16515;DHT22;8370;52.556;7.970;2022-07-03T03:21:39;16.60;99.90
16515;DHT22;8370;52.556;7.970;2022-07-03T03:24:08;16.60;99.90
16515;DHT22;8370;52.556;7.970;2022-07-03T03:26:34;16.60;99.90
16515;DHT22;8370;52.556;7.970;2022-07-03T03:29:00;16.60;99.90
16515;DHT22;8370;52.556;7.970;2022-07-03T03:31:26;16.60;99.90
16515;DHT22;8370;52.556;7.970;2022-07-03T03:33:52;16.60;99.90
16515;DHT22;8370;52.556;7.970;2022-07-03T03:36:19;16.60;99.90
16515;DHT22;8370;52.556;7.970;2022-07-03T03:38:46;16.60;99.90
16515;DHT22;8370;52.556;7.970;2022-07-03T03:41:12;16.70;99.90
16515;DHT22;8370;52.556;7.970;2022-07-03T03:43:38;16.60;99.90
16515;DHT22;8370;52.556;7.970;2022-07-03T03:46:04;16.60;99.90
16515;DHT22;8370;52.556;7.970;2022-07-03T03:48:32;16.60;99.90
16515;DHT22;8370;52.556;7.970;2022-07-03T03:50:58;16.60;99.90
16515;DHT22;8370;52.556;7.970;2022-07-03T03:53:25;16.70;99.90
16515;DHT22;8370;52.556;7.970;2022-07-03T03:58:19;16.70;99.90
16515;DHT22;8370;52.556;7.970;2022-07-03T04:00:45;16.70;99.90
16515;DHT22;8370;52.556;7.970;2022-07-03T04:03:10;16.70;99.90
16515;DHT22;8370;52.556;7.970;2022-07-03T04:05:36;16.70;99.90
16515;DHT22;8370;52.556;7.970;2022-07-03T04:08:01;16.60;99.90
16515;DHT22;8370;52.556;7.970;2022-07-03T04:10:27;16.60;99.90
16515;DHT22;8370;52.556;7.970;2022-07-03T04:12:52;16.60;99.90
16515;DHT22;8370;52.556;7.970;2022-07-03T04:15:18;16.60;99.90
16515;DHT22;8370;52.556;7.970;2022-07-03T04:17:43;16.60;99.90
16515;DHT22;8370;52.556;7.970;2022-07-03T04:20:09;16.60;99.90
16515;DHT22;8370;52.556;7.970;2022-07-03T04:22:35;16.60;99.90
16515;DHT22;8370;52.556;7.970;2022-07-03T04:25:00;16.60;99.90
16515;DHT22;8370;52.556;7.970;2022-07-03T04:27:26;16.60;99.90
16515;DHT22;8370;52.556;7.970;2022-07-03T04:29:51;16.50;99.90
16515;DHT22;8370;52.556;7.970;2022-07-03T04:32:17;16.50;99.90
16515;DHT22;8370;52.556;7.970;2022-07-03T04:34:42;16.50;99.90
16515;DHT22;8370;52.556;7.970;2022-07-03T04:37:08;16.50;99.90
16515;DHT22;8370;52.556;7.970;2022-07-03T04:39:33;16.50;99.90
16515;DHT22;8370;52.556;7.970;2022-07-03T04:41:58;16.50;99.90
16515;DHT22;8370;52.556;7.970;2022-07-03T04:44:24;16.60;99.90
16515;DHT22;8370;52.556;7.970;2022-07-03T04:46:49;16.70;99.90
16515;DHT22;8370;52.556;7.970;2022-07-03T04:49:15;16.70;99.90
16515;DHT22;8370;52.556;7.970;2022-07-03T04:51:41;16.80;99.90
16515;DHT22;8370;52.556;7.970;2022-07-03T04:54:07;16.80;99.90
16515;DHT22;8370;52.556;7.970;2022-07-03T04:56:32;16.80;99.90
16515;DHT22;8370;52.556;7.970;2022-07-03T04:58:58;16.70;99.90
16515;DHT22;8370;52.556;7.970;2022-07-03T05:01:23;16.80;99.90
16515;DHT22;8370;52.556;7.970;2022-07-03T05:03:49;16.80;99.90
16515;DHT22;8370;52.556;7.970;2022-07-03T05:06:14;16.80;99.90
16515;DHT22;8370;52.556;7.970;2022-07-03T05:08:40;16.90;99.90
16515;DHT22;8370;52.556;7.970;2022-07-03T05:11:05;16.90;99.90
16515;DHT22;8370;52.556;7.970;2022-07-03T05:13:31;16.90;99.90
16515;DHT22;8370;52.556;7.970;2022-07-03T05:15:56;17.00;99.90
16515;DHT22;8370;52.556;7.970;2022-07-03T05:18:22;17.00;99.90
16515;DHT22;8370;52.556;7.970;2022-07-03T05:20:48;17.00;99.90
16515;DHT22;8370;52.556;7.970;2022-07-03T05:23:13;17.10;99.90
16515;DHT22;8370;52.556;7.970;2022-07-03T05:25:39;17.20;99.90
16515;DHT22;8370;52.556;7.970;2022-07-03T05:28:04;17.10;99.90
16515;DHT22;8370;52.556;7.970;2022-07-03T05:30:30;17.20;99.90
16515;DHT22;8370;52.556;7.970;2022-07-03T05:32:55;17.20;99.90
16515;DHT22;8370;52.556;7.970;2022-07-03T05:35:21;17.30;99.90
16515;DHT22;8370;52.556;7.970;2022-07-03T05:37:46;17.30;99.90
16515;DHT22;8370;52.556;7.970;2022-07-03T05:40:12;17.40;99.90
16515;DHT22;8370;52.556;7.970;2022-07-03T05:42:38;17.50;99.90
16515;DHT22;8370;52.556;7.970;2022-07-03T05:45:04;17.60;99.90
16515;DHT22;8370;52.556;7.970;2022-07-03T05:47:29;17.70;99.90
16515;DHT22;8370;52.556;7.970;2022-07-03T05:49:55;17.70;99.90
16515;DHT22;8370;52.556;7.970;2022-07-03T05:52:20;17.80;99.90
16515;DHT22;8370;52.556;7.970;2022-07-03T05:54:46;17.90;99.90
16515;DHT22;8370;52.556;7.970;2022-07-03T05:57:12;17.90;99.90
16515;DHT22;8370;52.556;7.970;2022-07-03T05:59:38;18.00;99.90
16515;DHT22;8370;52.556;7.970;2022-07-03T06:02:04;18.10;99.90
16515;DHT22;8370;52.556;7.970;2022-07-03T06:04:29;18.10;99.90
16515;DHT22;8370;52.556;7.970;2022-07-03T06:06:55;18.20;99.90
16515;DHT22;8370;52.556;7.970;2022-07-03T06:09:21;18.30;99.90
16515;DHT22;8370;52.556;7.970;2022-07-03T06:11:47;18.40;99.90
16515;DHT22;8370;52.556;7.970;2022-07-03T06:14:13;18.50;99.90
16515;DHT22;8370;52.556;7.970;2022-07-03T06:16:39;18.60;99.90
16515;DHT22;8370;52.556;7.970;2022-07-03T06:19:04;18.70;99.90
16515;DHT22;8370;52.556;7.970;2022-07-03T06:21:30;18.80;99.90
16515;DHT22;8370;52.556;7.970;2022-07-03T06:23:55;18.90;99.90
16515;DHT22;8370;52.556;7.970;2022-07-03T06:26:21;18.90;99.90
16515;DHT22;8370;52.556;7.970;2022-07-03T06:28:46;19.00;99.90
16515;DHT22;8370;52.556;7.970;2022-07-03T06:31:12;19.10;99.90
16515;DHT22;8370;52.556;7.970;2022-07-03T06:33:38;19.10;99.90
16515;DHT22;8370;52.556;7.970;2022-07-03T06:36:03;19.20;99.90
16515;DHT22;8370;52.556;7.970;2022-07-03T06:38:29;19.30;99.90
16515;DHT22;8370;52.556;7.970;2022-07-03T06:40:54;19.30;99.90
16515;DHT22;8370;52.556;7.970;2022-07-03T06:43:20;19.30;99.90
16515;DHT22;8370;52.556;7.970;2022-07-03T06:45:45;19.30;99.90
16515;DHT22;8370;52.556;7.970;2022-07-03T06:48:11;19.30;99.90
16515;DHT22;8370;52.556;7.970;2022-07-03T06:50:36;19.40;99.90
16515;DHT22;8370;52.556;7.970;2022-07-03T06:53:02;19.40;99.90
16515;DHT22;8370;52.556;7.970;2022-07-03T06:55:27;19.50;99.90
16515;DHT22;8370;52.556;7.970;2022-07-03T06:57:53;19.60;99.90
16515;DHT22;8370;52.556;7.970;2022-07-03T07:00:18;19.60;99.90
16515;DHT22;8370;52.556;7.970;2022-07-03T07:02:44;19.70;99.90
16515;DHT22;8370;52.556;7.970;2022-07-03T07:05:10;19.70;99.90
16515;DHT22;8370;52.556;7.970;2022-07-03T07:07:35;19.80;99.90
16515;DHT22;8370;52.556;7.970;2022-07-03T07:10:01;19.90;99.90
16515;DHT22;8370;52.556;7.970;2022-07-03T07:12:27;20.00;99.90
16515;DHT22;8370;52.556;7.970;2022-07-03T07:14:52;20.00;99.90
16515;DHT22;8370;52.556;7.970;2022-07-03T07:17:18;20.10;99.90
16515;DHT22;8370;52.556;7.970;2022-07-03T07:19:43;20.20;99.90
16515;DHT22;8370;52.556;7.970;2022-07-03T07:22:09;20.40;99.90
16515;DHT22;8370;52.556;7.970;2022-07-03T07:24:35;20.70;99.90
16515;DHT22;8370;52.556;7.970;2022-07-03T07:27:00;20.90;99.90
16515;DHT22;8370;52.556;7.970;2022-07-03T07:29:26;21.10;99.90
16515;DHT22;8370;52.556;7.970;2022-07-03T07:31:52;21.30;99.90
16515;DHT22;8370;52.556;7.970;2022-07-03T07:34:17;21.40;99.90
16515;DHT22;8370;52.556;7.970;2022-07-03T07:36:43;21.60;99.90
16515;DHT22;8370;52.556;7.970;2022-07-03T07:39:08;21.60;99.90
16515;DHT22;8370;52.556;7.970;2022-07-03T07:41:35;21.60;99.90
16515;DHT22;8370;52.556;7.970;2022-07-03T07:44:01;21.70;99.90
16515;DHT22;8370;52.556;7.970;2022-07-03T07:46:27;21.70;99.90
16515;DHT22;8370;52.556;7.970;2022-07-03T07:48:52;21.80;99.90
16515;DHT22;8370;52.556;7.970;2022-07-03T07:51:18;21.80;99.90
16515;DHT22;8370;52.556;7.970;2022-07-03T07:53:43;21.90;99.90
16515;DHT22;8370;52.556;7.970;2022-07-03T07:56:09;22.00;99.90
16515;DHT22;8370;52.556;7.970;2022-07-03T07:58:35;22.00;99.90
16515;DHT22;8370;52.556;7.970;2022-07-03T08:01:00;22.10;99.90
16515;DHT22;8370;52.556;7.970;2022-07-03T08:03:44;22.20;99.90
16515;DHT22;8370;52.556;7.970;2022-07-03T08:06:28;22.20;99.90
16515;DHT22;8370;52.556;7.970;2022-07-03T08:08:54;22.40;99.90
16515;DHT22;8370;52.556;7.970;2022-07-03T08:11:19;22.40;99.90
16515;DHT22;8370;52.556;7.970;2022-07-03T08:13:45;22.50;99.90
16515;DHT22;8370;52.556;7.970;2022-07-03T08:16:12;22.60;99.90
16515;DHT22;8370;52.556;7.970;2022-07-03T08:18:37;22.60;99.90
16515;DHT22;8370;52.556;7.970;2022-07-03T08:21:03;22.60;99.90
16515;DHT22;8370;52.556;7.970;2022-07-03T08:23:28;22.70;99.90
16515;DHT22;8370;52.556;7.970;2022-07-03T08:25:54;22.80;99.90
16515;DHT22;8370;52.556;7.970;2022-07-03T08:28:19;22.80;99.90
16515;DHT22;8370;52.556;7.970;2022-07-03T08:30:45;22.80;99.90
16515;DHT22;8370;52.556;7.970;2022-07-03T08:33:10;22.90;99.90
16515;DHT22;8370;52.556;7.970;2022-07-03T08:35:36;23.00;99.90
16515;DHT22;8370;52.556;7.970;2022-07-03T08:38:02;23.10;99.90
16515;DHT22;8370;52.556;7.970;2022-07-03T08:40:27;23.20;99.90
16515;DHT22;8370;52.556;7.970;2022-07-03T08:42:56;23.30;99.90
16515;DHT22;8370;52.556;7.970;2022-07-03T08:45:22;23.30;99.90
16515;DHT22;8370;52.556;7.970;2022-07-03T08:47:49;23.30;99.90
16515;DHT22;8370;52.556;7.970;2022-07-03T08:50:17;23.40;99.90
16515;DHT22;8370;52.556;7.970;2022-07-03T08:52:44;23.40;99.90
16515;DHT22;8370;52.556;7.970;2022-07-03T08:55:11;23.40;99.90
16515;DHT22;8370;52.556;7.970;2022-07-03T08:57:37;23.40;99.90
16515;DHT22;8370;52.556;7.970;2022-07-03T09:00:08;23.40;99.90
16515;DHT22;8370;52.556;7.970;2022-07-03T09:02:34;23.50;99.90
16515;DHT22;8370;52.556;7.970;2022-07-03T09:05:01;23.60;99.90
16515;DHT22;8370;52.556;7.970;2022-07-03T09:07:35;23.60;99.90
16515;DHT22;8370;52.556;7.970;2022-07-03T09:10:06;23.70;99.90
16515;DHT22;8370;52.556;7.970;2022-07-03T09:12:32;23.70;99.90
16515;DHT22;8370;52.556;7.970;2022-07-03T09:15:02;23.80;99.90
16515;DHT22;8370;52.556;7.970;2022-07-03T09:17:28;23.80;99.90
16515;DHT22;8370;52.556;7.970;2022-07-03T09:19:54;23.80;99.90
16515;DHT22;8370;52.556;7.970;2022-07-03T09:22:29;23.90;99.90
16515;DHT22;8370;52.556;7.970;2022-07-03T09:25:12;23.80;99.90
16515;DHT22;8370;52.556;7.970;2022-07-03T09:27:50;23.80;99.90
16515;DHT22;8370;52.556;7.970;2022-07-03T09:30:17;23.80;99.90
16515;DHT22;8370;52.556;7.970;2022-07-03T09:32:44;23.80;99.90
16515;DHT22;8370;52.556;7.970;2022-07-03T09:38:02;23.90;99.90
16515;DHT22;8370;52.556;7.970;2022-07-03T09:40:50;23.90;99.90
16515;DHT22;8370;52.556;7.970;2022-07-03T09:43:26;23.90;99.90
16515;DHT22;8370;52.556;7.970;2022-07-03T09:46:01;24.00;99.90
16515;DHT22;8370;52.556;7.970;2022-07-03T09:48:33;24.10;99.90
16515;DHT22;8370;52.556;7.970;2022-07-03T09:51:13;24.20;99.90
16515;DHT22;8370;52.556;7.970;2022-07-03T09:56:14;24.30;99.90
16515;DHT22;8370;52.556;7.970;2022-07-03T09:58:41;24.30;99.90
16515;DHT22;8370;52.556;7.970;2022-07-03T10:01:18;24.20;99.90
16515;DHT22;8370;52.556;7.970;2022-07-03T10:03:43;24.20;99.90
16515;DHT22;8370;52.556;7.970;2022-07-03T10:06:09;24.30;99.90
16515;DHT22;8370;52.556;7.970;2022-07-03T10:08:35;24.40;99.90
16515;DHT22;8370;52.556;7.970;2022-07-03T10:11:01;24.50;99.90
16515;DHT22;8370;52.556;7.970;2022-07-03T10:13:28;24.60;99.90
16515;DHT22;8370;52.556;7.970;2022-07-03T10:15:53;24.70;99.90
16515;DHT22;8370;52.556;7.970;2022-07-03T10:18:20;24.80;99.90
16515;DHT22;8370;52.556;7.970;2022-07-03T10:20:49;24.80;99.90
16515;DHT22;8370;52.556;7.970;2022-07-03T10:23:15;24.80;99.90
16515;DHT22;8370;52.556;7.970;2022-07-03T10:25:43;25.00;99.90
16515;DHT22;8370;52.556;7.970;2022-07-03T10:28:11;25.10;99.90
16515;DHT22;8370;52.556;7.970;2022-07-03T10:30:37;25.30;99.90
16515;DHT22;8370;52.556;7.970;2022-07-03T10:33:03;25.30;99.90
16515;DHT22;8370;52.556;7.970;2022-07-03T10:35:35;25.20;99.90
16515;DHT22;8370;52.556;7.970;2022-07-03T10:38:05;25.20;99.90
16515;DHT22;8370;52.556;7.970;2022-07-03T10:40:54;25.20;99.90
16515;DHT22;8370;52.556;7.970;2022-07-03T10:43:43;25.20;99.90
16515;DHT22;8370;52.556;7.970;2022-07-03T10:46:28;25.20;99.90
16515;DHT22;8370;52.556;7.970;2022-07-03T10:49:07;25.30;99.90
16515;DHT22;8370;52.556;7.970;2022-07-03T10:51:55;25.20;99.90
16515;DHT22;8370;52.556;7.970;2022-07-03T10:54:35;25.20;99.90
16515;DHT22;8370;52.556;7.970;2022-07-03T10:57:04;25.20;99.90
16515;DHT22;8370;52.556;7.970;2022-07-03T11:07:30;25.10;99.90
16515;DHT22;8370;52.556;7.970;2022-07-03T11:15:41;24.90;99.90
16515;DHT22;8370;52.556;7.970;2022-07-03T11:18:15;25.20;99.90
16515;DHT22;8370;52.556;7.970;2022-07-03T11:25:42;25.60;99.90
16515;DHT22;8370;52.556;7.970;2022-07-03T11:28:47;25.70;99.90
16515;DHT22;8370;52.556;7.970;2022-07-03T11:36:24;25.60;99.90
16515;DHT22;8370;52.556;7.970;2022-07-03T11:41:43;25.90;99.90
16515;DHT22;8370;52.556;7.970;2022-07-03T11:44:15;25.90;99.90
16515;DHT22;8370;52.556;7.970;2022-07-03T11:46:41;25.90;99.90
16515;DHT22;8370;52.556;7.970;2022-07-03T11:49:08;25.90;99.90
16515;DHT22;8370;52.556;7.970;2022-07-03T11:51:35;25.70;99.90
16515;DHT22;8370;52.556;7.970;2022-07-03T11:54:02;25.60;99.90
16515;DHT22;8370;52.556;7.970;2022-07-03T11:56:27;25.70;99.90
16515;DHT22;8370;52.556;7.970;2022-07-03T11:58:58;25.70;99.90
16515;DHT22;8370;52.556;7.970;2022-07-03T12:03:50;25.70;99.90
16515;DHT22;8370;52.556;7.970;2022-07-03T12:06:16;26.10;99.90
16515;DHT22;8370;52.556;7.970;2022-07-03T12:08:42;26.30;99.90
16515;DHT22;8370;52.556;7.970;2022-07-03T12:11:12;26.70;99.90
16515;DHT22;8370;52.556;7.970;2022-07-03T12:13:39;27.30;99.90
16515;DHT22;8370;52.556;7.970;2022-07-03T12:16:13;27.90;99.90
16515;DHT22;8370;52.556;7.970;2022-07-03T12:18:51;29.10;99.90
16515;DHT22;8370;52.556;7.970;2022-07-03T12:21:22;30.50;97.80
16515;DHT22;8370;52.556;7.970;2022-07-03T12:23:50;32.40;94.70
16515;DHT22;8370;52.556;7.970;2022-07-03T12:26:33;33.30;92.30
16515;DHT22;8370;52.556;7.970;2022-07-03T12:29:01;34.20;90.30
16515;DHT22;8370;52.556;7.970;2022-07-03T12:31:27;34.80;88.00
16515;DHT22;8370;52.556;7.970;2022-07-03T12:33:54;35.20;86.20
16515;DHT22;8370;52.556;7.970;2022-07-03T12:36:20;34.20;84.80
16515;DHT22;8370;52.556;7.970;2022-07-03T12:38:51;32.80;86.20
16515;DHT22;8370;52.556;7.970;2022-07-03T12:41:17;31.50;89.40
16515;DHT22;8370;52.556;7.970;2022-07-03T12:43:45;31.40;90.10
16515;DHT22;8370;52.556;7.970;2022-07-03T12:46:18;31.20;88.40
16515;DHT22;8370;52.556;7.970;2022-07-03T12:48:49;30.50;90.40
16515;DHT22;8370;52.556;7.970;2022-07-03T12:51:16;30.00;90.80
16515;DHT22;8370;52.556;7.970;2022-07-03T12:53:42;29.50;91.10
16515;DHT22;8370;52.556;7.970;2022-07-03T12:56:10;29.70;91.50
16515;DHT22;8370;52.556;7.970;2022-07-03T12:58:39;30.30;90.50
16515;DHT22;8370;52.556;7.970;2022-07-03T13:01:25;31.60;91.10
16515;DHT22;8370;52.556;7.970;2022-07-03T13:03:51;31.60;91.00
16515;DHT22;8370;52.556;7.970;2022-07-03T13:06:19;31.20;91.10
16515;DHT22;8370;52.556;7.970;2022-07-03T13:08:57;30.50;92.00
16515;DHT22;8370;52.556;7.970;2022-07-03T13:11:33;30.00;92.60
16515;DHT22;8370;52.556;7.970;2022-07-03T13:16:46;28.90;93.50
16515;DHT22;8370;52.556;7.970;2022-07-03T13:19:14;28.30;93.40
16515;DHT22;8370;52.556;7.970;2022-07-03T13:21:40;27.80;94.20
16515;DHT22;8370;52.556;7.970;2022-07-03T13:24:07;27.30;94.80
16515;DHT22;8370;52.556;7.970;2022-07-03T13:26:33;26.80;95.30
16515;DHT22;8370;52.556;7.970;2022-07-03T13:28:59;26.30;95.70
16515;DHT22;8370;52.556;7.970;2022-07-03T13:31:24;26.00;96.30
16515;DHT22;8370;52.556;7.970;2022-07-03T13:33:50;25.80;97.20
16515;DHT22;8370;52.556;7.970;2022-07-03T13:36:16;25.70;97.60
16515;DHT22;8370;52.556;7.970;2022-07-03T13:38:45;25.50;98.00
16515;DHT22;8370;52.556;7.970;2022-07-03T13:41:11;25.80;98.90
16515;DHT22;8370;52.556;7.970;2022-07-03T13:43:36;26.10;98.50
16515;DHT22;8370;52.556;7.970;2022-07-03T13:46:02;26.30;98.40
16515;DHT22;8370;52.556;7.970;2022-07-03T13:48:28;26.50;97.80
16515;DHT22;8370;52.556;7.970;2022-07-03T13:50:53;26.70;97.40
16515;DHT22;8370;52.556;7.970;2022-07-03T13:53:19;26.70;97.10
16515;DHT22;8370;52.556;7.970;2022-07-03T13:55:44;26.50;97.20
16515;DHT22;8370;52.556;7.970;2022-07-03T13:58:10;26.50;97.30
16515;DHT22;8370;52.556;7.970;2022-07-03T14:00:36;26.60;97.20
16515;DHT22;8370;52.556;7.970;2022-07-03T14:03:01;26.50;96.70
16515;DHT22;8370;52.556;7.970;2022-07-03T14:05:27;26.50;96.50
16515;DHT22;8370;52.556;7.970;2022-07-03T14:07:54;26.50;96.30
16515;DHT22;8370;52.556;7.970;2022-07-03T14:10:20;26.40;95.10
16515;DHT22;8370;52.556;7.970;2022-07-03T14:12:47;26.20;95.60
16515;DHT22;8370;52.556;7.970;2022-07-03T14:15:13;26.20;96.00
16515;DHT22;8370;52.556;7.970;2022-07-03T14:17:39;26.20;95.80
16515;DHT22;8370;52.556;7.970;2022-07-03T14:20:05;26.20;95.00
16515;DHT22;8370;52.556;7.970;2022-07-03T14:22:31;26.10;95.40
16515;DHT22;8370;52.556;7.970;2022-07-03T14:24:56;26.00;95.90
16515;DHT22;8370;52.556;7.970;2022-07-03T14:27:22;26.10;95.90
16515;DHT22;8370;52.556;7.970;2022-07-03T14:30:06;26.00;95.50
16515;DHT22;8370;52.556;7.970;2022-07-03T14:32:50;25.90;95.10
16515;DHT22;8370;52.556;7.970;2022-07-03T14:35:15;26.00;95.10
16515;DHT22;8370;52.556;7.970;2022-07-03T14:37:41;26.10;94.70
16515;DHT22;8370;52.556;7.970;2022-07-03T14:40:07;26.20;93.70
16515;DHT22;8370;52.556;7.970;2022-07-03T14:42:33;26.10;94.10
16515;DHT22;8370;52.556;7.970;2022-07-03T14:44:58;26.20;94.60
16515;DHT22;8370;52.556;7.970;2022-07-03T14:47:23;26.30;93.70
16515;DHT22;8370;52.556;7.970;2022-07-03T14:49:49;26.30;93.90
16515;DHT22;8370;52.556;7.970;2022-07-03T14:52:15;26.30;93.30
16515;DHT22;8370;52.556;7.970;2022-07-03T14:54:41;26.30;93.40
16515;DHT22;8370;52.556;7.970;2022-07-03T15:00:10;26.30;92.40
16515;DHT22;8370;52.556;7.970;2022-07-03T15:05:15;26.00;92.20
16515;DHT22;8370;52.556;7.970;2022-07-03T15:07:52;25.90;91.90
16515;DHT22;8370;52.556;7.970;2022-07-03T15:10:19;25.90;91.60
16515;DHT22;8370;52.556;7.970;2022-07-03T15:12:51;26.00;92.60
16515;DHT22;8370;52.556;7.970;2022-07-03T15:15:18;26.10;92.00
16515;DHT22;8370;52.556;7.970;2022-07-03T15:17:51;26.20;91.70
16515;DHT22;8370;52.556;7.970;2022-07-03T15:20:18;26.20;92.40
16515;DHT22;8370;52.556;7.970;2022-07-03T15:22:45;26.30;91.60
16515;DHT22;8370;52.556;7.970;2022-07-03T15:25:13;26.30;92.00
16515;DHT22;8370;52.556;7.970;2022-07-03T15:27:39;26.30;92.20
16515;DHT22;8370;52.556;7.970;2022-07-03T15:30:06;26.30;91.90
16515;DHT22;8370;52.556;7.970;2022-07-03T15:32:33;26.30;92.50
16515;DHT22;8370;52.556;7.970;2022-07-03T15:34:59;26.30;91.70
16515;DHT22;8370;52.556;7.970;2022-07-03T15:40:09;26.30;92.00
16515;DHT22;8370;52.556;7.970;2022-07-03T15:46:02;26.30;91.90
16515;DHT22;8370;52.556;7.970;2022-07-03T15:48:37;26.30;91.80
16515;DHT22;8370;52.556;7.970;2022-07-03T15:51:12;26.40;91.50
16515;DHT22;8370;52.556;7.970;2022-07-03T15:53:40;26.40;91.20
16515;DHT22;8370;52.556;7.970;2022-07-03T15:56:07;26.30;91.20
16515;DHT22;8370;52.556;7.970;2022-07-03T15:58:35;26.20;91.70
16515;DHT22;8370;52.556;7.970;2022-07-03T16:01:05;26.30;92.20
16515;DHT22;8370;52.556;7.970;2022-07-03T16:04:06;26.10;93.10
16515;DHT22;8370;52.556;7.970;2022-07-03T16:06:33;25.80;93.70
16515;DHT22;8370;52.556;7.970;2022-07-03T16:08:59;25.60;94.20
16515;DHT22;8370;52.556;7.970;2022-07-03T16:11:25;25.50;94.40
16515;DHT22;8370;52.556;7.970;2022-07-03T16:13:52;25.40;95.20
16515;DHT22;8370;52.556;7.970;2022-07-03T16:16:20;25.30;95.30
16515;DHT22;8370;52.556;7.970;2022-07-03T16:18:46;25.30;96.10
16515;DHT22;8370;52.556;7.970;2022-07-03T16:21:12;25.20;95.40
16515;DHT22;8370;52.556;7.970;2022-07-03T16:23:40;25.10;95.80
16515;DHT22;8370;52.556;7.970;2022-07-03T16:26:09;25.10;96.60
16515;DHT22;8370;52.556;7.970;2022-07-03T16:28:35;25.30;96.40
16515;DHT22;8370;52.556;7.970;2022-07-03T16:31:01;25.40;96.40
16515;DHT22;8370;52.556;7.970;2022-07-03T16:33:32;25.50;96.60
16515;DHT22;8370;52.556;7.970;2022-07-03T16:36:11;25.60;96.70
16515;DHT22;8370;52.556;7.970;2022-07-03T16:38:41;25.70;96.70
16515;DHT22;8370;52.556;7.970;2022-07-03T16:41:11;25.80;96.30
16515;DHT22;8370;52.556;7.970;2022-07-03T16:43:39;25.70;96.20
16515;DHT22;8370;52.556;7.970;2022-07-03T16:46:08;25.60;96.50
16515;DHT22;8370;52.556;7.970;2022-07-03T16:48:38;25.50;97.50
16515;DHT22;8370;52.556;7.970;2022-07-03T16:51:07;25.50;97.70
16515;DHT22;8370;52.556;7.970;2022-07-03T16:53:34;25.50;97.80
16515;DHT22;8370;52.556;7.970;2022-07-03T16:56:01;25.40;97.90
16515;DHT22;8370;52.556;7.970;2022-07-03T16:58:28;25.40;97.60
16515;DHT22;8370;52.556;7.970;2022-07-03T17:00:55;25.30;97.60
16515;DHT22;8370;52.556;7.970;2022-07-03T17:03:30;25.20;97.90
16515;DHT22;8370;52.556;7.970;2022-07-03T17:05:56;25.10;97.80
16515;DHT22;8370;52.556;7.970;2022-07-03T17:08:22;25.00;97.60
16515;DHT22;8370;52.556;7.970;2022-07-03T17:10:48;24.80;97.80
16515;DHT22;8370;52.556;7.970;2022-07-03T17:13:14;24.50;98.00